sensor_id;sensor_type;location;lat;lon;timestamp;temperature;humidity
63047;DHT22;62025;39.238;9.126;2023-08-06T00:00:57;24.80;60.10
63047;DHT22;62025;39.238;9.126;2023-08-06T00:03:23;24.80;60.40
63047;DHT22;62025;39.238;9.126;2023-08-06T00:05:48;24.70;60.40
63047;DHT22;62025;39.238;9.126;2023-08-06T00:08:14;24.70;60.50
63047;DHT22;62025;39.238;9.126;2023-08-06T00:10:40;24.70;60.60
63047;DHT22;62025;39.238;9.126;2023-08-06T00:13:07;24.80;60.50
63047;DHT22;62025;39.238;9.126;2023-08-06T00:15:33;24.70;60.60
63047;DHT22;62025;39.238;9.126;2023-08-06T00:17:59;24.70;61.00
63047;DHT22;62025;39.238;9.126;2023-08-06T00:20:25;24.70;61.00
63047;DHT22;62025;39.238;9.126;2023-08-06T00:22:50;24.60;61.20
63047;DHT22;62025;39.238;9.126;2023-08-06T00:25:16;24.60;61.30
63047;DHT22;62025;39.238;9.126;2023-08-06T00:27:42;24.60;61.50
63047;DHT22;62025;39.238;9.126;2023-08-06T00:30:09;24.60;61.70
63047;DHT22;62025;39.238;9.126;2023-08-06T00:32:35;24.60;61.60
63047;DHT22;62025;39.238;9.126;2023-08-06T00:35:01;24.70;61.60
63047;DHT22;62025;39.238;9.126;2023-08-06T00:37:27;24.60;61.80
63047;DHT22;62025;39.238;9.126;2023-08-06T00:39:53;24.60;61.90
63047;DHT22;62025;39.238;9.126;2023-08-06T00:42:19;24.60;61.80
63047;DHT22;62025;39.238;9.126;2023-08-06T00:44:46;24.60;61.50
63047;DHT22;62025;39.238;9.126;2023-08-06T00:47:13;24.50;61.40
63047;DHT22;62025;39.238;9.126;2023-08-06T00:49:39;24.50;61.30
63047;DHT22;62025;39.238;9.126;2023-08-06T00:52:05;24.50;61.00
63047;DHT22;62025;39.238;9.126;2023-08-06T00:54:33;24.50;60.80
63047;DHT22;62025;39.238;9.126;2023-08-06T00:57:01;24.40;60.80
63047;DHT22;62025;39.238;9.126;2023-08-06T00:59:30;24.40;60.50
63047;DHT22;62025;39.238;9.126;2023-08-06T01:01:56;24.40;60.20
63047;DHT22;62025;39.238;9.126;2023-08-06T01:04:23;24.40;60.10
63047;DHT22;62025;39.238;9.126;2023-08-06T01:07:18;24.40;59.80
63047;DHT22;62025;39.238;9.126;2023-08-06T01:10:27;24.40;59.50
63047;DHT22;62025;39.238;9.126;2023-08-06T01:13:43;24.40;59.30
63047;DHT22;62025;39.238;9.126;2023-08-06T01:16:15;24.40;59.00
63047;DHT22;62025;39.238;9.126;2023-08-06T01:18:43;24.40;58.80
63047;DHT22;62025;39.238;9.126;2023-08-06T01:21:16;24.40;58.80
63047;DHT22;62025;39.238;9.126;2023-08-06T01:23:43;24.40;58.60
63047;DHT22;62025;39.238;9.126;2023-08-06T01:27:11;24.40;58.70
63047;DHT22;62025;39.238;9.126;2023-08-06T01:30:12;24.40;58.40
63047;DHT22;62025;39.238;9.126;2023-08-06T01:32:51;24.40;58.40
63047;DHT22;62025;39.238;9.126;2023-08-06T01:35:20;24.40;58.40
63047;DHT22;62025;39.238;9.126;2023-08-06T01:37:47;24.40;58.40
63047;DHT22;62025;39.238;9.126;2023-08-06T01:40:14;24.40;58.30
63047;DHT22;62025;39.238;9.126;2023-08-06T01:42:40;24.40;58.40
63047;DHT22;62025;39.238;9.126;2023-08-06T01:45:08;24.40;58.40
63047;DHT22;62025;39.238;9.126;2023-08-06T01:47:35;24.40;58.30
63047;DHT22;62025;39.238;9.126;2023-08-06T01:50:01;24.40;58.30
63047;DHT22;62025;39.238;9.126;2023-08-06T01:52:28;24.40;58.40
63047;DHT22;62025;39.238;9.126;2023-08-06T01:54:54;24.40;58.40
63047;DHT22;62025;39.238;9.126;2023-08-06T01:57:21;24.40;58.30
63047;DHT22;62025;39.238;9.126;2023-08-06T01:59:47;24.40;58.40
63047;DHT22;62025;39.238;9.126;2023-08-06T02:02:13;24.30;58.40
63047;DHT22;62025;39.238;9.126;2023-08-06T02:04:39;24.40;58.40
63047;DHT22;62025;39.238;9.126;2023-08-06T02:07:04;24.40;58.50
63047;DHT22;62025;39.238;9.126;2023-08-06T02:09:31;24.40;58.40
63047;DHT22;62025;39.238;9.126;2023-08-06T02:11:57;24.30;58.50
63047;DHT22;62025;39.238;9.126;2023-08-06T02:14:23;24.30;58.50
63047;DHT22;62025;39.238;9.126;2023-08-06T02:16:49;24.30;58.60
63047;DHT22;62025;39.238;9.126;2023-08-06T02:19:15;24.30;58.60
63047;DHT22;62025;39.238;9.126;2023-08-06T02:21:41;24.30;58.70
63047;DHT22;62025;39.238;9.126;2023-08-06T02:24:07;24.30;58.80
63047;DHT22;62025;39.238;9.126;2023-08-06T02:26:33;24.30;58.90
63047;DHT22;62025;39.238;9.126;2023-08-06T02:28:59;24.30;59.00
63047;DHT22;62025;39.238;9.126;2023-08-06T02:31:25;24.30;59.20
63047;DHT22;62025;39.238;9.126;2023-08-06T02:33:51;24.30;59.20
63047;DHT22;62025;39.238;9.126;2023-08-06T02:36:19;24.30;59.30
63047;DHT22;62025;39.238;9.126;2023-08-06T02:38:45;24.30;59.50
63047;DHT22;62025;39.238;9.126;2023-08-06T02:41:11;24.30;59.50
63047;DHT22;62025;39.238;9.126;2023-08-06T02:43:37;24.20;59.60
63047;DHT22;62025;39.238;9.126;2023-08-06T02:46:03;24.30;59.70
63047;DHT22;62025;39.238;9.126;2023-08-06T02:48:29;24.30;59.70
63047;DHT22;62025;39.238;9.126;2023-08-06T02:50:59;24.30;59.90
63047;DHT22;62025;39.238;9.126;2023-08-06T02:53:26;24.20;60.20
63047;DHT22;62025;39.238;9.126;2023-08-06T02:55:52;24.20;60.30
63047;DHT22;62025;39.238;9.126;2023-08-06T02:58:24;24.20;60.50
63047;DHT22;62025;39.238;9.126;2023-08-06T03:01:06;24.20;60.40
63047;DHT22;62025;39.238;9.126;2023-08-06T03:03:47;24.20;60.40
63047;DHT22;62025;39.238;9.126;2023-08-06T03:06:20;24.20;60.30
63047;DHT22;62025;39.238;9.126;2023-08-06T03:08:50;24.20;60.20
63047;DHT22;62025;39.238;9.126;2023-08-06T03:11:16;24.20;60.00
63047;DHT22;62025;39.238;9.126;2023-08-06T03:13:41;24.20;59.80
63047;DHT22;62025;39.238;9.126;2023-08-06T03:16:08;24.10;59.90
63047;DHT22;62025;39.238;9.126;2023-08-06T03:18:34;24.10;59.80
63047;DHT22;62025;39.238;9.126;2023-08-06T03:21:03;24.10;59.70
63047;DHT22;62025;39.238;9.126;2023-08-06T03:23:30;24.10;59.90
63047;DHT22;62025;39.238;9.126;2023-08-06T03:26:04;24.00;60.00
63047;DHT22;62025;39.238;9.126;2023-08-06T03:28:32;24.10;60.10
63047;DHT22;62025;39.238;9.126;2023-08-06T03:31:02;24.00;60.20
63047;DHT22;62025;39.238;9.126;2023-08-06T03:33:36;24.00;60.40
63047;DHT22;62025;39.238;9.126;2023-08-06T03:36:04;24.00;60.40
63047;DHT22;62025;39.238;9.126;2023-08-06T03:38:32;24.00;60.50
63047;DHT22;62025;39.238;9.126;2023-08-06T03:41:03;24.00;60.70
63047;DHT22;62025;39.238;9.126;2023-08-06T03:43:29;24.00;60.70
63047;DHT22;62025;39.238;9.126;2023-08-06T03:45:55;23.90;60.80
63047;DHT22;62025;39.238;9.126;2023-08-06T03:48:21;23.90;60.80
63047;DHT22;62025;39.238;9.126;2023-08-06T03:50:47;23.90;60.80
63047;DHT22;62025;39.238;9.126;2023-08-06T03:53:15;23.90;60.80
63047;DHT22;62025;39.238;9.126;2023-08-06T03:55:41;23.90;60.80
63047;DHT22;62025;39.238;9.126;2023-08-06T03:58:08;23.90;60.80
63047;DHT22;62025;39.238;9.126;2023-08-06T04:00:34;23.90;60.90
63047;DHT22;62025;39.238;9.126;2023-08-06T04:03:00;23.80;61.00
63047;DHT22;62025;39.238;9.126;2023-08-06T04:05:30;23.90;61.00
63047;DHT22;62025;39.238;9.126;2023-08-06T04:07:57;23.80;60.90
63047;DHT22;62025;39.238;9.126;2023-08-06T04:10:23;23.80;61.00
63047;DHT22;62025;39.238;9.126;2023-08-06T04:12:48;23.80;61.10
63047;DHT22;62025;39.238;9.126;2023-08-06T04:15:14;23.80;61.10
63047;DHT22;62025;39.238;9.126;2023-08-06T04:17:40;23.80;61.10
63047;DHT22;62025;39.238;9.126;2023-08-06T04:20:07;23.80;61.20
63047;DHT22;62025;39.238;9.126;2023-08-06T04:22:33;23.80;61.10
63047;DHT22;62025;39.238;9.126;2023-08-06T04:24:59;23.80;61.20
63047;DHT22;62025;39.238;9.126;2023-08-06T04:27:25;23.80;61.20
63047;DHT22;62025;39.238;9.126;2023-08-06T04:29:52;23.70;61.30
63047;DHT22;62025;39.238;9.126;2023-08-06T04:32:18;23.70;61.40
63047;DHT22;62025;39.238;9.126;2023-08-06T04:34:48;23.70;61.50
63047;DHT22;62025;39.238;9.126;2023-08-06T04:37:15;23.70;61.40
63047;DHT22;62025;39.238;9.126;2023-08-06T04:39:41;23.80;61.40
63047;DHT22;62025;39.238;9.126;2023-08-06T04:42:07;23.80;61.40
63047;DHT22;62025;39.238;9.126;2023-08-06T04:44:33;23.70;61.40
63047;DHT22;62025;39.238;9.126;2023-08-06T04:46:59;23.80;61.50
63047;DHT22;62025;39.238;9.126;2023-08-06T04:49:25;23.70;61.40
63047;DHT22;62025;39.238;9.126;2023-08-06T04:51:51;23.70;61.40
63047;DHT22;62025;39.238;9.126;2023-08-06T04:54:16;23.80;61.40
63047;DHT22;62025;39.238;9.126;2023-08-06T04:56:42;23.80;61.30
63047;DHT22;62025;39.238;9.126;2023-08-06T04:59:08;23.80;61.40
63047;DHT22;62025;39.238;9.126;2023-08-06T05:01:34;23.80;61.40
63047;DHT22;62025;39.238;9.126;2023-08-06T05:04:00;23.80;61.40
63047;DHT22;62025;39.238;9.126;2023-08-06T05:06:26;23.80;61.30
63047;DHT22;62025;39.238;9.126;2023-08-06T05:08:52;23.80;61.40
63047;DHT22;62025;39.238;9.126;2023-08-06T05:11:18;23.80;61.40
63047;DHT22;62025;39.238;9.126;2023-08-06T05:13:44;23.90;61.40
63047;DHT22;62025;39.238;9.126;2023-08-06T05:16:10;23.90;61.40
63047;DHT22;62025;39.238;9.126;2023-08-06T05:18:36;23.90;61.30
63047;DHT22;62025;39.238;9.126;2023-08-06T05:21:03;23.90;61.30
63047;DHT22;62025;39.238;9.126;2023-08-06T05:23:29;24.00;61.20
63047;DHT22;62025;39.238;9.126;2023-08-06T05:25:55;24.00;61.20
63047;DHT22;62025;39.238;9.126;2023-08-06T05:28:21;24.10;61.10
63047;DHT22;62025;39.238;9.126;2023-08-06T05:30:46;24.10;61.00
63047;DHT22;62025;39.238;9.126;2023-08-06T05:33:12;24.20;60.80
63047;DHT22;62025;39.238;9.126;2023-08-06T05:35:40;24.30;60.70
63047;DHT22;62025;39.238;9.126;2023-08-06T05:38:06;24.30;60.60
63047;DHT22;62025;39.238;9.126;2023-08-06T05:40:35;24.40;60.40
63047;DHT22;62025;39.238;9.126;2023-08-06T05:43:01;24.40;60.20
63047;DHT22;62025;39.238;9.126;2023-08-06T05:45:27;24.50;60.00
63047;DHT22;62025;39.238;9.126;2023-08-06T05:47:53;24.60;59.90
63047;DHT22;62025;39.238;9.126;2023-08-06T05:50:23;24.70;59.60
63047;DHT22;62025;39.238;9.126;2023-08-06T05:52:49;24.70;59.20
63047;DHT22;62025;39.238;9.126;2023-08-06T05:55:15;24.80;59.00
63047;DHT22;62025;39.238;9.126;2023-08-06T05:57:41;24.90;58.80
63047;DHT22;62025;39.238;9.126;2023-08-06T06:00:07;24.90;58.70
63047;DHT22;62025;39.238;9.126;2023-08-06T06:02:38;24.90;58.50
63047;DHT22;62025;39.238;9.126;2023-08-06T06:05:04;25.00;58.40
63047;DHT22;62025;39.238;9.126;2023-08-06T06:07:30;25.00;58.10
63047;DHT22;62025;39.238;9.126;2023-08-06T06:09:56;25.10;57.90
63047;DHT22;62025;39.238;9.126;2023-08-06T06:12:22;25.10;57.80
63047;DHT22;62025;39.238;9.126;2023-08-06T06:14:48;25.20;57.60
63047;DHT22;62025;39.238;9.126;2023-08-06T06:17:14;25.30;57.50
63047;DHT22;62025;39.238;9.126;2023-08-06T06:19:40;25.40;57.50
63047;DHT22;62025;39.238;9.126;2023-08-06T06:22:06;25.40;57.30
63047;DHT22;62025;39.238;9.126;2023-08-06T06:24:31;25.40;57.20
63047;DHT22;62025;39.238;9.126;2023-08-06T06:26:57;25.50;56.90
63047;DHT22;62025;39.238;9.126;2023-08-06T06:29:24;25.50;56.80
63047;DHT22;62025;39.238;9.126;2023-08-06T06:31:50;25.60;56.60
63047;DHT22;62025;39.238;9.126;2023-08-06T06:34:15;25.70;56.40
63047;DHT22;62025;39.238;9.126;2023-08-06T06:36:41;25.70;55.80
63047;DHT22;62025;39.238;9.126;2023-08-06T06:39:08;25.80;55.50
63047;DHT22;62025;39.238;9.126;2023-08-06T06:41:34;25.80;55.30
63047;DHT22;62025;39.238;9.126;2023-08-06T06:44:08;25.90;55.00
63047;DHT22;62025;39.238;9.126;2023-08-06T06:46:34;25.90;54.80
63047;DHT22;62025;39.238;9.126;2023-08-06T06:49:00;25.90;54.30
63047;DHT22;62025;39.238;9.126;2023-08-06T06:51:26;25.90;54.10
63047;DHT22;62025;39.238;9.126;2023-08-06T06:53:52;26.00;53.70
63047;DHT22;62025;39.238;9.126;2023-08-06T06:56:18;26.00;53.60
63047;DHT22;62025;39.238;9.126;2023-08-06T06:58:44;26.10;53.40
63047;DHT22;62025;39.238;9.126;2023-08-06T07:01:10;26.20;53.10
63047;DHT22;62025;39.238;9.126;2023-08-06T07:03:37;26.20;52.70
63047;DHT22;62025;39.238;9.126;2023-08-06T07:06:03;26.20;52.60
63047;DHT22;62025;39.238;9.126;2023-08-06T07:08:30;26.30;52.10
63047;DHT22;62025;39.238;9.126;2023-08-06T07:11:03;26.40;51.70
63047;DHT22;62025;39.238;9.126;2023-08-06T07:13:30;26.40;51.30
63047;DHT22;62025;39.238;9.126;2023-08-06T07:15:56;26.40;49.70
63047;DHT22;62025;39.238;9.126;2023-08-06T07:18:22;26.40;48.70
63047;DHT22;62025;39.238;9.126;2023-08-06T07:20:53;26.50;48.60
63047;DHT22;62025;39.238;9.126;2023-08-06T07:23:21;26.60;48.30
63047;DHT22;62025;39.238;9.126;2023-08-06T07:25:48;26.60;48.10
63047;DHT22;62025;39.238;9.126;2023-08-06T07:28:15;26.60;47.70
63047;DHT22;62025;39.238;9.126;2023-08-06T07:30:42;26.70;47.50
63047;DHT22;62025;39.238;9.126;2023-08-06T07:33:09;26.80;46.30
63047;DHT22;62025;39.238;9.126;2023-08-06T07:35:36;26.80;45.70
63047;DHT22;62025;39.238;9.126;2023-08-06T07:38:02;26.80;45.70
63047;DHT22;62025;39.238;9.126;2023-08-06T07:40:28;26.80;45.70
63047;DHT22;62025;39.238;9.126;2023-08-06T07:42:54;26.90;45.60
63047;DHT22;62025;39.238;9.126;2023-08-06T07:45:20;27.00;45.50
63047;DHT22;62025;39.238;9.126;2023-08-06T07:47:46;27.00;45.10
63047;DHT22;62025;39.238;9.126;2023-08-06T07:50:13;27.10;44.70
63047;DHT22;62025;39.238;9.126;2023-08-06T07:52:39;27.20;45.00
63047;DHT22;62025;39.238;9.126;2023-08-06T07:55:05;27.20;45.40
63047;DHT22;62025;39.238;9.126;2023-08-06T07:57:32;27.40;45.30
63047;DHT22;62025;39.238;9.126;2023-08-06T08:00:00;27.40;45.30
63047;DHT22;62025;39.238;9.126;2023-08-06T08:02:27;27.40;45.30
63047;DHT22;62025;39.238;9.126;2023-08-06T08:04:53;27.40;45.20
63047;DHT22;62025;39.238;9.126;2023-08-06T08:07:19;27.40;45.50
63047;DHT22;62025;39.238;9.126;2023-08-06T08:09:45;27.50;44.90
63047;DHT22;62025;39.238;9.126;2023-08-06T08:12:11;27.60;44.20
63047;DHT22;62025;39.238;9.126;2023-08-06T08:14:37;27.70;44.40
63047;DHT22;62025;39.238;9.126;2023-08-06T08:17:03;27.80;44.00
63047;DHT22;62025;39.238;9.126;2023-08-06T08:19:31;27.90;43.90
63047;DHT22;62025;39.238;9.126;2023-08-06T08:21:57;27.90;43.80
63047;DHT22;62025;39.238;9.126;2023-08-06T08:24:24;28.00;43.60
63047;DHT22;62025;39.238;9.126;2023-08-06T08:26:51;28.00;43.60
63047;DHT22;62025;39.238;9.126;2023-08-06T08:29:17;28.10;43.70
63047;DHT22;62025;39.238;9.126;2023-08-06T08:31:43;28.20;43.60
63047;DHT22;62025;39.238;9.126;2023-08-06T08:34:10;28.30;43.40
63047;DHT22;62025;39.238;9.126;2023-08-06T08:36:35;28.40;43.00
63047;DHT22;62025;39.238;9.126;2023-08-06T08:39:02;28.40;43.00
63047;DHT22;62025;39.238;9.126;2023-08-06T08:41:30;28.40;43.20
63047;DHT22;62025;39.238;9.126;2023-08-06T08:43:58;28.40;43.10
63047;DHT22;62025;39.238;9.126;2023-08-06T08:46:32;28.60;42.80
63047;DHT22;62025;39.238;9.126;2023-08-06T08:48:59;28.60;42.80
63047;DHT22;62025;39.238;9.126;2023-08-06T08:51:27;28.60;42.30
63047;DHT22;62025;39.238;9.126;2023-08-06T08:53:53;28.60;42.50
63047;DHT22;62025;39.238;9.126;2023-08-06T08:56:23;28.60;42.80
63047;DHT22;62025;39.238;9.126;2023-08-06T08:58:50;28.70;42.40
63047;DHT22;62025;39.238;9.126;2023-08-06T09:01:19;28.80;42.60
63047;DHT22;62025;39.238;9.126;2023-08-06T09:03:46;28.80;42.10
63047;DHT22;62025;39.238;9.126;2023-08-06T09:06:13;28.70;42.50
63047;DHT22;62025;39.238;9.126;2023-08-06T09:08:48;28.90;42.70
63047;DHT22;62025;39.238;9.126;2023-08-06T09:11:19;28.90;42.70
63047;DHT22;62025;39.238;9.126;2023-08-06T09:13:47;29.00;41.70
63047;DHT22;62025;39.238;9.126;2023-08-06T09:16:13;29.00;41.00
63047;DHT22;62025;39.238;9.126;2023-08-06T09:18:39;29.00;40.70
63047;DHT22;62025;39.238;9.126;2023-08-06T09:21:06;29.00;40.40
63047;DHT22;62025;39.238;9.126;2023-08-06T09:23:39;29.00;39.90
63047;DHT22;62025;39.238;9.126;2023-08-06T09:26:05;29.10;39.40
63047;DHT22;62025;39.238;9.126;2023-08-06T09:28:37;29.10;39.00
63047;DHT22;62025;39.238;9.126;2023-08-06T09:31:09;29.20;38.40
63047;DHT22;62025;39.238;9.126;2023-08-06T09:33:36;29.20;38.30
63047;DHT22;62025;39.238;9.126;2023-08-06T09:36:10;29.20;38.90
63047;DHT22;62025;39.238;9.126;2023-08-06T09:38:40;29.20;39.40
63047;DHT22;62025;39.238;9.126;2023-08-06T09:41:07;29.40;38.20
63047;DHT22;62025;39.238;9.126;2023-08-06T09:43:40;29.40;38.10
63047;DHT22;62025;39.238;9.126;2023-08-06T09:46:15;29.30;38.80
63047;DHT22;62025;39.238;9.126;2023-08-06T09:48:45;29.40;39.00
63047;DHT22;62025;39.238;9.126;2023-08-06T09:51:13;29.40;38.50
63047;DHT22;62025;39.238;9.126;2023-08-06T09:53:40;29.40;37.90
63047;DHT22;62025;39.238;9.126;2023-08-06T09:56:06;29.40;38.30
63047;DHT22;62025;39.238;9.126;2023-08-06T09:58:33;29.40;38.70
63047;DHT22;62025;39.238;9.126;2023-08-06T10:01:02;29.40;38.60
63047;DHT22;62025;39.238;9.126;2023-08-06T10:03:30;29.40;38.10
63047;DHT22;62025;39.238;9.126;2023-08-06T10:05:57;29.40;38.40
63047;DHT22;62025;39.238;9.126;2023-08-06T10:08:23;29.40;38.40
63047;DHT22;62025;39.238;9.126;2023-08-06T10:10:49;29.40;38.60
63047;DHT22;62025;39.238;9.126;2023-08-06T10:13:17;29.30;38.70
63047;DHT22;62025;39.238;9.126;2023-08-06T10:15:45;29.20;37.00
63047;DHT22;62025;39.238;9.126;2023-08-06T10:18:11;29.20;37.60
63047;DHT22;62025;39.238;9.126;2023-08-06T10:20:39;29.20;37.00
63047;DHT22;62025;39.238;9.126;2023-08-06T10:23:05;29.10;37.10
63047;DHT22;62025;39.238;9.126;2023-08-06T10:25:34;29.10;37.70
63047;DHT22;62025;39.238;9.126;2023-08-06T10:28:10;29.00;37.80
63047;DHT22;62025;39.238;9.126;2023-08-06T10:30:47;29.00;37.30
63047;DHT22;62025;39.238;9.126;2023-08-06T10:33:14;29.00;36.90
63047;DHT22;62025;39.238;9.126;2023-08-06T10:35:48;28.90;37.10
63047;DHT22;62025;39.238;9.126;2023-08-06T10:38:19;28.90;38.10
63047;DHT22;62025;39.238;9.126;2023-08-06T10:43:27;28.80;36.80
63047;DHT22;62025;39.238;9.126;2023-08-06T10:45:54;28.80;38.00
63047;DHT22;62025;39.238;9.126;2023-08-06T10:51:01;28.70;39.10
63047;DHT22;62025;39.238;9.126;2023-08-06T10:53:28;28.70;39.30
63047;DHT22;62025;39.238;9.126;2023-08-06T10:55:54;28.70;38.40
63047;DHT22;62025;39.238;9.126;2023-08-06T10:58:20;28.70;37.60
63047;DHT22;62025;39.238;9.126;2023-08-06T11:00:46;28.60;36.70
63047;DHT22;62025;39.238;9.126;2023-08-06T11:03:12;28.60;37.40
63047;DHT22;62025;39.238;9.126;2023-08-06T11:05:39;28.60;37.50
63047;DHT22;62025;39.238;9.126;2023-08-06T11:08:05;28.60;37.10
63047;DHT22;62025;39.238;9.126;2023-08-06T11:10:33;28.50;37.30
63047;DHT22;62025;39.238;9.126;2023-08-06T11:13:03;28.60;37.50
63047;DHT22;62025;39.238;9.126;2023-08-06T11:15:31;28.60;38.10
63047;DHT22;62025;39.238;9.126;2023-08-06T11:17:58;28.60;38.50
63047;DHT22;62025;39.238;9.126;2023-08-06T11:20:24;28.50;38.90
63047;DHT22;62025;39.238;9.126;2023-08-06T11:22:50;28.50;38.90
63047;DHT22;62025;39.238;9.126;2023-08-06T11:25:19;28.50;38.40
63047;DHT22;62025;39.238;9.126;2023-08-06T11:27:46;28.50;38.30
63047;DHT22;62025;39.238;9.126;2023-08-06T11:30:12;28.50;38.20
63047;DHT22;62025;39.238;9.126;2023-08-06T11:32:47;28.40;37.40
63047;DHT22;62025;39.238;9.126;2023-08-06T11:35:15;28.40;37.40
63047;DHT22;62025;39.238;9.126;2023-08-06T11:37:45;28.40;36.80
63047;DHT22;62025;39.238;9.126;2023-08-06T11:40:11;28.40;37.30
63047;DHT22;62025;39.238;9.126;2023-08-06T11:42:39;28.40;37.60
63047;DHT22;62025;39.238;9.126;2023-08-06T11:45:05;28.40;37.80
63047;DHT22;62025;39.238;9.126;2023-08-06T11:47:34;28.40;38.20
63047;DHT22;62025;39.238;9.126;2023-08-06T11:50:00;28.40;37.70
63047;DHT22;62025;39.238;9.126;2023-08-06T11:52:26;28.40;37.70
63047;DHT22;62025;39.238;9.126;2023-08-06T11:57:32;28.40;37.80
63047;DHT22;62025;39.238;9.126;2023-08-06T12:00:12;28.40;37.50
63047;DHT22;62025;39.238;9.126;2023-08-06T12:02:44;28.40;37.40
63047;DHT22;62025;39.238;9.126;2023-08-06T12:05:14;28.40;37.60
63047;DHT22;62025;39.238;9.126;2023-08-06T12:07:48;28.40;36.90
63047;DHT22;62025;39.238;9.126;2023-08-06T12:10:16;28.40;36.30
63047;DHT22;62025;39.238;9.126;2023-08-06T12:12:45;28.30;35.90
63047;DHT22;62025;39.238;9.126;2023-08-06T12:15:11;28.20;36.70
63047;DHT22;62025;39.238;9.126;2023-08-06T12:17:38;28.20;37.40
63047;DHT22;62025;39.238;9.126;2023-08-06T12:20:05;28.30;36.90
63047;DHT22;62025;39.238;9.126;2023-08-06T12:22:32;28.20;35.80
63047;DHT22;62025;39.238;9.126;2023-08-06T12:25:05;28.20;36.10
63047;DHT22;62025;39.238;9.126;2023-08-06T12:27:36;28.20;36.20
63047;DHT22;62025;39.238;9.126;2023-08-06T12:30:04;28.10;34.40
63047;DHT22;62025;39.238;9.126;2023-08-06T12:32:31;28.10;33.70
63047;DHT22;62025;39.238;9.126;2023-08-06T12:34:57;28.10;33.60
63047;DHT22;62025;39.238;9.126;2023-08-06T12:37:24;28.10;34.60
63047;DHT22;62025;39.238;9.126;2023-08-06T12:39:51;28.10;34.70
63047;DHT22;62025;39.238;9.126;2023-08-06T12:42:17;28.10;34.60
63047;DHT22;62025;39.238;9.126;2023-08-06T12:44:43;28.10;34.60
63047;DHT22;62025;39.238;9.126;2023-08-06T12:47:09;28.10;34.50
63047;DHT22;62025;39.238;9.126;2023-08-06T12:49:35;28.10;35.00
63047;DHT22;62025;39.238;9.126;2023-08-06T12:52:01;28.10;35.30
63047;DHT22;62025;39.238;9.126;2023-08-06T12:54:28;28.10;34.10
63047;DHT22;62025;39.238;9.126;2023-08-06T12:56:54;28.10;33.70
63047;DHT22;62025;39.238;9.126;2023-08-06T12:59:20;28.10;33.60
63047;DHT22;62025;39.238;9.126;2023-08-06T13:01:46;28.10;33.60
63047;DHT22;62025;39.238;9.126;2023-08-06T13:04:14;28.10;33.80
63047;DHT22;62025;39.238;9.126;2023-08-06T13:06:40;28.10;34.20
63047;DHT22;62025;39.238;9.126;2023-08-06T13:09:06;28.10;34.70
63047;DHT22;62025;39.238;9.126;2023-08-06T13:11:34;28.10;34.70
63047;DHT22;62025;39.238;9.126;2023-08-06T13:16:33;28.20;34.90
63047;DHT22;62025;39.238;9.126;2023-08-06T13:18:59;28.20;34.50
63047;DHT22;62025;39.238;9.126;2023-08-06T13:21:35;28.10;34.20
63047;DHT22;62025;39.238;9.126;2023-08-06T13:24:23;28.20;33.90
63047;DHT22;62025;39.238;9.126;2023-08-06T13:26:49;28.20;33.70
63047;DHT22;62025;39.238;9.126;2023-08-06T13:29:15;28.20;34.00
63047;DHT22;62025;39.238;9.126;2023-08-06T13:31:41;28.20;33.80
63047;DHT22;62025;39.238;9.126;2023-08-06T13:34:06;28.20;33.80
63047;DHT22;62025;39.238;9.126;2023-08-06T13:36:33;28.20;33.50
63047;DHT22;62025;39.238;9.126;2023-08-06T13:38:59;28.20;34.30
63047;DHT22;62025;39.238;9.126;2023-08-06T13:41:25;28.20;34.00
63047;DHT22;62025;39.238;9.126;2023-08-06T13:43:51;28.20;33.50
63047;DHT22;62025;39.238;9.126;2023-08-06T13:46:18;28.20;33.70
63047;DHT22;62025;39.238;9.126;2023-08-06T13:48:47;28.20;32.50
63047;DHT22;62025;39.238;9.126;2023-08-06T13:51:16;28.10;31.90
63047;DHT22;62025;39.238;9.126;2023-08-06T13:53:42;28.10;32.20
63047;DHT22;62025;39.238;9.126;2023-08-06T13:56:09;28.10;32.30
63047;DHT22;62025;39.238;9.126;2023-08-06T13:58:39;28.10;31.90
63047;DHT22;62025;39.238;9.126;2023-08-06T14:01:06;28.10;31.30
63047;DHT22;62025;39.238;9.126;2023-08-06T14:03:32;28.00;31.60
63047;DHT22;62025;39.238;9.126;2023-08-06T14:05:58;28.10;32.20
63047;DHT22;62025;39.238;9.126;2023-08-06T14:08:24;28.00;30.80
63047;DHT22;62025;39.238;9.126;2023-08-06T14:10:51;28.10;29.60
63047;DHT22;62025;39.238;9.126;2023-08-06T14:13:18;28.10;28.50
63047;DHT22;62025;39.238;9.126;2023-08-06T14:15:44;28.00;28.70
63047;DHT22;62025;39.238;9.126;2023-08-06T14:18:13;28.00;28.10
63047;DHT22;62025;39.238;9.126;2023-08-06T14:20:43;28.00;28.10
63047;DHT22;62025;39.238;9.126;2023-08-06T14:23:10;28.00;28.20
63047;DHT22;62025;39.238;9.126;2023-08-06T14:25:37;28.00;28.10
63047;DHT22;62025;39.238;9.126;2023-08-06T14:28:04;28.10;27.40
63047;DHT22;62025;39.238;9.126;2023-08-06T14:30:32;28.00;26.70
63047;DHT22;62025;39.238;9.126;2023-08-06T14:32:59;28.00;26.80
63047;DHT22;62025;39.238;9.126;2023-08-06T14:35:26;28.00;25.80
63047;DHT22;62025;39.238;9.126;2023-08-06T14:37:52;28.00;27.20
63047;DHT22;62025;39.238;9.126;2023-08-06T14:40:18;28.10;28.00
63047;DHT22;62025;39.238;9.126;2023-08-06T14:42:44;28.00;26.70
63047;DHT22;62025;39.238;9.126;2023-08-06T14:45:10;28.10;27.00
63047;DHT22;62025;39.238;9.126;2023-08-06T14:47:36;28.00;26.60
63047;DHT22;62025;39.238;9.126;2023-08-06T14:50:02;28.00;26.70
63047;DHT22;62025;39.238;9.126;2023-08-06T14:52:28;28.00;26.80
63047;DHT22;62025;39.238;9.126;2023-08-06T14:54:55;28.00;27.40
63047;DHT22;62025;39.238;9.126;2023-08-06T14:57:21;27.90;26.70
63047;DHT22;62025;39.238;9.126;2023-08-06T14:59:53;27.90;27.40
63047;DHT22;62025;39.238;9.126;2023-08-06T15:02:19;27.90;28.20
63047;DHT22;62025;39.238;9.126;2023-08-06T15:04:46;27.90;27.70
63047;DHT22;62025;39.238;9.126;2023-08-06T15:07:12;27.90;28.10
63047;DHT22;62025;39.238;9.126;2023-08-06T15:09:38;27.90;28.00
63047;DHT22;62025;39.238;9.126;2023-08-06T15:12:04;27.90;28.50
63047;DHT22;62025;39.238;9.126;2023-08-06T15:14:31;27.90;28.40
63047;DHT22;62025;39.238;9.126;2023-08-06T15:16:56;27.90;28.80
63047;DHT22;62025;39.238;9.126;2023-08-06T15:19:24;27.90;29.30
63047;DHT22;62025;39.238;9.126;2023-08-06T15:21:50;27.90;30.00
63047;DHT22;62025;39.238;9.126;2023-08-06T15:24:16;27.90;30.10
63047;DHT22;62025;39.238;9.126;2023-08-06T15:26:42;27.90;29.90
63047;DHT22;62025;39.238;9.126;2023-08-06T15:29:08;27.80;30.20
63047;DHT22;62025;39.238;9.126;2023-08-06T15:31:39;27.90;30.40
63047;DHT22;62025;39.238;9.126;2023-08-06T15:34:06;27.80;30.80
63047;DHT22;62025;39.238;9.126;2023-08-06T15:36:33;27.80;30.60
63047;DHT22;62025;39.238;9.126;2023-08-06T15:39:00;27.80;30.60
63047;DHT22;62025;39.238;9.126;2023-08-06T15:41:26;27.90;30.90
63047;DHT22;62025;39.238;9.126;2023-08-06T15:43:52;27.80;31.60